Time;durP1;ratioP1;P1;durP2;ratioP2;P2;SDS_P1;SDS_P2;PMS_P1;PMS_P2;Temp;Humidity;BMP_temperature;BMP_pressure;BME280_temperature;BME280_humidity;BME280_pressure;Samples;Min_cycle;Max_cycle;Signal;HPM_P1;HPM_P2
2022/07/17 00:00:34;;;;;;;0.20;0.20;;;19.20;80.10;;;;;;4770257;30;20155;-88
2022/07/17 00:03:01;;;;;;;0.10;0.10;;;19.10;80.40;;;;;;4787129;29;20067;-88
2022/07/17 00:05:31;;;;;;;0.35;0.22;;;19.10;80.20;;;;;;4773477;29;20059;-88
2022/07/17 00:08:00;;;;;;;0.10;0.10;;;19.10;80.40;;;;;;4774912;29;20061;-88
2022/07/17 00:10:27;;;;;;;0.17;0.13;;;19.00;80.70;;;;;;4771732;29;20078;-88
2022/07/17 00:12:54;;;;;;;0.57;0.30;;;19.00;80.40;;;;;;4764796;29;20078;-88
2022/07/17 00:15:21;;;;;;;0.17;0.17;;;18.90;81.10;;;;;;4771543;29;20055;-86
2022/07/17 00:17:48;;;;;;;0.10;0.10;;;18.90;81.30;;;;;;4771059;29;20127;-87
2022/07/17 00:20:15;;;;;;;0.20;0.20;;;18.90;80.90;;;;;;4771556;29;20054;-88
2022/07/17 00:22:43;;;;;;;0.30;0.30;;;18.80;82.00;;;;;;4770515;29;20570;-85
2022/07/17 00:25:10;;;;;;;0.25;0.25;;;18.80;82.10;;;;;;4783847;29;20072;-87
2022/07/17 00:27:37;;;;;;;0.13;0.13;;;18.80;82.50;;;;;;4770058;29;20093;-87
2022/07/17 00:30:05;;;;;;;0.30;0.20;;;18.80;82.30;;;;;;4772245;29;20097;-87
2022/07/17 00:32:32;;;;;;;0.28;0.22;;;18.80;82.40;;;;;;4773524;29;20069;-86
2022/07/17 00:34:59;;;;;;;0.08;0.08;;;18.70;83.10;;;;;;4772648;29;20051;-87
2022/07/17 00:37:27;;;;;;;0.20;0.20;;;18.70;82.80;;;;;;4771577;29;20069;-86
2022/07/17 00:39:54;;;;;;;0.30;0.10;;;18.70;83.40;;;;;;4770741;29;20108;-87
2022/07/17 00:42:21;;;;;;;0.10;0.10;;;18.60;83.30;;;;;;4772596;29;20059;-86
2022/07/17 00:44:48;;;;;;;0.10;0.10;;;18.50;83.60;;;;;;4770355;29;20062;-87
2022/07/17 00:47:20;;;;;;;0.20;0.20;;;18.60;83.70;;;;;;4769510;29;20058;-86
2022/07/17 00:49:55;;;;;;;0.10;0.10;;;18.50;84.40;;;;;;4783925;29;20051;-87
2022/07/17 00:52:22;;;;;;;0.17;0.17;;;18.50;84.60;;;;;;4771141;29;20062;-87
2022/07/17 00:54:49;;;;;;;0.25;0.20;;;18.40;84.90;;;;;;4771569;29;20059;-87
2022/07/17 00:57:36;;;;;;;0.35;0.20;;;18.40;85.30;;;;;;4800719;29;20058;-86
2022/07/17 01:00:09;;;;;;;0.38;0.20;;;18.30;85.50;;;;;;4771274;29;20051;-87
2022/07/17 01:02:37;;;;;;;0.20;0.20;;;18.30;85.90;;;;;;4773092;29;20066;-88
2022/07/17 01:05:05;;;;;;;0.20;0.20;;;18.20;86.50;;;;;;4771579;29;20054;-86
2022/07/17 01:07:35;;;;;;;0.20;0.20;;;18.10;86.40;;;;;;4767433;30;20151;-87
2022/07/17 01:10:02;;;;;;;0.38;0.20;;;18.10;86.40;;;;;;4771035;29;20430;-87
2022/07/17 01:12:29;;;;;;;0.38;0.30;;;18.00;87.50;;;;;;4768156;30;20055;-86
2022/07/17 01:14:57;;;;;;;0.25;0.20;;;18.00;86.70;;;;;;4784015;29;20519;-88
2022/07/17 01:17:24;;;;;;;0.25;0.22;;;18.00;87.80;;;;;;4767300;30;20112;-87
2022/07/17 01:19:51;;;;;;;0.22;0.20;;;18.00;87.70;;;;;;4771947;29;20065;-86
2022/07/17 01:22:18;;;;;;;0.35;0.20;;;17.90;88.00;;;;;;4770741;29;20120;-86
2022/07/17 01:24:45;;;;;;;0.10;0.10;;;17.90;87.80;;;;;;4769816;29;20058;-86
2022/07/17 01:27:13;;;;;;;0.38;0.30;;;17.90;88.50;;;;;;4769632;29;20473;-86
2022/07/17 01:29:40;;;;;;;0.15;0.15;;;17.80;89.10;;;;;;4784588;29;20063;-86
2022/07/17 01:32:07;;;;;;;0.20;0.10;;;17.80;88.60;;;;;;4756441;30;20376;-88
2022/07/17 01:34:34;;;;;;;0.30;0.20;;;17.80;90.00;;;;;;4771046;30;20070;-88
2022/07/17 01:37:01;;;;;;;0.22;0.20;;;17.80;90.10;;;;;;4780550;29;20054;-87
2022/07/17 01:42:13;;;;;;;0.50;0.30;;;17.80;90.10;;;;;;4771117;30;20140;-87
2022/07/17 01:44:40;;;;;;;0.25;0.25;;;17.70;89.90;;;;;;4782297;29;20062;-86
2022/07/17 01:47:07;;;;;;;0.32;0.30;;;17.70;90.30;;;;;;4780326;29;20058;-86
2022/07/17 01:49:34;;;;;;;0.15;0.15;;;17.60;90.30;;;;;;4785120;29;20318;-85
2022/07/17 01:52:02;;;;;;;0.28;0.20;;;17.60;90.50;;;;;;4779860;30;20086;-86
2022/07/17 01:54:30;;;;;;;0.30;0.20;;;17.50;91.10;;;;;;4767169;30;20114;-87
2022/07/17 01:56:57;;;;;;;0.20;0.20;;;17.50;91.30;;;;;;4766973;30;20078;-87
2022/07/17 01:59:24;;;;;;;0.15;0.10;;;17.50;91.20;;;;;;4769211;29;20061;-88
2022/07/17 02:01:52;;;;;;;0.38;0.20;;;17.60;91.20;;;;;;4769524;29;20075;-87
2022/07/17 02:04:20;;;;;;;0.32;0.22;;;17.50;91.20;;;;;;4769952;29;20062;-87
2022/07/17 02:06:47;;;;;;;0.70;0.30;;;17.50;91.80;;;;;;4769998;29;20564;-87
2022/07/17 02:09:14;;;;;;;0.20;0.20;;;17.50;91.80;;;;;;4766127;30;20116;-88
2022/07/17 02:11:41;;;;;;;0.20;0.20;;;17.50;91.80;;;;;;4785819;29;20451;-87
2022/07/17 02:14:08;;;;;;;0.40;0.30;;;17.50;92.00;;;;;;4802760;29;20066;-87
2022/07/17 02:16:35;;;;;;;0.20;0.20;;;17.40;92.40;;;;;;4787611;29;20063;-87
2022/07/17 02:19:02;;;;;;;0.50;0.20;;;17.40;92.50;;;;;;4787661;29;20058;-87
2022/07/17 02:21:29;;;;;;;0.20;0.20;;;17.30;92.80;;;;;;4788932;29;20509;-88
2022/07/17 02:23:56;;;;;;;0.10;0.10;;;17.30;92.90;;;;;;4760472;30;20066;-87
2022/07/17 02:26:23;;;;;;;0.57;0.40;;;17.20;93.20;;;;;;4773564;30;20544;-88
2022/07/17 02:28:51;;;;;;;0.80;0.30;;;17.20;93.40;;;;;;4782914;29;20158;-87
2022/07/17 02:31:18;;;;;;;0.30;0.20;;;17.20;93.80;;;;;;4773015;29;20150;-88
2022/07/17 02:33:45;;;;;;;0.55;0.30;;;17.20;94.00;;;;;;4772835;29;20527;-88
2022/07/17 02:36:12;;;;;;;0.20;0.20;;;17.20;94.10;;;;;;4769990;30;20078;-88
2022/07/17 02:38:39;;;;;;;0.75;0.30;;;17.20;94.50;;;;;;4780792;29;20498;-87
2022/07/17 02:41:06;;;;;;;0.50;0.30;;;17.20;94.60;;;;;;4769130;30;20058;-87
2022/07/17 02:43:33;;;;;;;0.20;0.20;;;17.20;94.70;;;;;;4769096;30;20063;-87
2022/07/17 02:46:01;;;;;;;0.20;0.10;;;17.10;94.90;;;;;;4769741;30;20527;-87
2022/07/17 02:48:28;;;;;;;0.40;0.28;;;17.10;95.10;;;;;;4767830;30;20055;-87
2022/07/17 02:50:55;;;;;;;0.28;0.20;;;17.10;95.40;;;;;;4771182;29;20066;-87
2022/07/17 02:53:22;;;;;;;0.45;0.20;;;17.10;95.60;;;;;;4771745;29;20066;-88
2022/07/17 02:55:49;;;;;;;0.47;0.20;;;17.10;95.60;;;;;;4772626;29;20051;-86
2022/07/17 02:58:16;;;;;;;0.38;0.25;;;17.00;96.10;;;;;;4770961;29;20107;-88
2022/07/17 03:00:44;;;;;;;0.20;0.20;;;17.00;96.40;;;;;;4769819;29;20149;-87
2022/07/17 03:03:11;;;;;;;0.10;0.10;;;17.00;96.70;;;;;;4768993;30;20470;-86
2022/07/17 03:05:38;;;;;;;0.35;0.25;;;17.00;96.90;;;;;;4754760;30;20062;-87
2022/07/17 03:08:05;;;;;;;0.20;0.20;;;17.00;97.00;;;;;;4770567;29;20528;-87
2022/07/17 03:10:32;;;;;;;0.28;0.22;;;16.90;97.40;;;;;;4784760;29;20051;-87
2022/07/17 03:12:59;;;;;;;0.60;0.40;;;16.90;97.80;;;;;;4771982;29;20062;-87
2022/07/17 03:15:26;;;;;;;0.55;0.30;;;16.90;97.80;;;;;;4768096;30;20248;-87
2022/07/17 03:17:53;;;;;;;0.20;0.20;;;16.90;98.00;;;;;;4771425;29;20067;-87
2022/07/17 03:20:20;;;;;;;1.05;0.30;;;16.80;98.20;;;;;;4772204;29;20211;-88
2022/07/17 03:22:47;;;;;;;0.20;0.20;;;16.80;98.70;;;;;;4767933;29;20067;-87
2022/07/17 03:25:14;;;;;;;0.25;0.20;;;16.70;99.30;;;;;;4769012;30;20075;-87
2022/07/17 03:27:41;;;;;;;0.38;0.38;;;16.70;99.60;;;;;;4772559;29;20070;-89
2022/07/17 03:30:08;;;;;;;0.65;0.25;;;16.70;99.90;;;;;;4772929;29;20055;-88
2022/07/17 03:32:35;;;;;;;0.20;0.20;;;16.70;99.90;;;;;;4766972;30;20059;-88
2022/07/17 03:35:02;;;;;;;0.28;0.28;;;16.60;99.90;;;;;;4769425;30;20054;-88
2022/07/17 03:37:30;;;;;;;0.30;0.20;;;16.60;99.90;;;;;;4772574;29;20075;-88
2022/07/17 03:39:57;;;;;;;0.38;0.30;;;16.60;99.90;;;;;;4769612;29;20063;-87
2022/07/17 03:42:23;;;;;;;0.40;0.30;;;16.60;99.90;;;;;;4773772;29;20408;-88
2022/07/17 03:44:50;;;;;;;0.20;0.20;;;16.60;99.90;;;;;;4773714;29;20137;-87
2022/07/17 03:47:17;;;;;;;0.20;0.20;;;16.70;99.90;;;;;;4771450;29;20062;-88
2022/07/17 03:49:44;;;;;;;0.10;0.10;;;16.60;99.90;;;;;;4795734;29;20082;-88
2022/07/17 03:52:11;;;;;;;0.10;0.10;;;16.60;99.90;;;;;;4780499;29;20598;-87
2022/07/17 03:54:39;;;;;;;0.20;0.17;;;16.60;99.90;;;;;;4773339;29;20434;-87
2022/07/17 03:57:06;;;;;;;0.30;0.20;;;16.60;99.90;;;;;;4773262;29;20065;-88
2022/07/17 03:59:33;;;;;;;0.38;0.25;;;16.50;99.90;;;;;;4772764;29;20079;-88
2022/07/17 04:02:00;;;;;;;0.40;0.40;;;16.50;99.90;;;;;;4772743;29;20054;-88
2022/07/17 04:04:27;;;;;;;0.40;0.20;;;16.50;99.90;;;;;;4788421;29;20066;-88
2022/07/17 04:06:54;;;;;;;0.40;0.20;;;16.50;99.90;;;;;;4787981;29;20066;-86
2022/07/17 04:09:21;;;;;;;0.25;0.20;;;16.50;99.90;;;;;;4783043;29;20314;-88
2022/07/17 04:11:48;;;;;;;0.10;0.10;;;16.50;99.90;;;;;;4772430;29;20054;-87
2022/07/17 04:14:15;;;;;;;0.28;0.22;;;16.50;99.90;;;;;;4771407;29;20051;-89
2022/07/17 04:16:42;;;;;;;0.40;0.30;;;16.50;99.90;;;;;;4773060;29;20064;-88
2022/07/17 04:19:09;;;;;;;0.65;0.22;;;16.50;99.90;;;;;;4773818;29;20145;-88
2022/07/17 04:21:36;;;;;;;0.20;0.20;;;16.50;99.90;;;;;;4786527;29;20145;-88
2022/07/17 04:24:03;;;;;;;0.25;0.20;;;16.50;99.90;;;;;;4772561;29;20127;-88
2022/07/17 04:26:30;;;;;;;0.32;0.20;;;16.50;99.90;;;;;;4776311;29;20055;-88
2022/07/17 04:28:59;;;;;;;0.20;0.20;;;16.40;99.90;;;;;;4773308;29;20077;-87
2022/07/17 04:31:27;;;;;;;0.20;0.20;;;16.40;99.90;;;;;;4912657;24;20051;-89
2022/07/17 04:33:54;;;;;;;0.30;0.30;;;16.40;99.90;;;;;;4770108;30;20071;-83
2022/07/17 04:36:22;;;;;;;0.47;0.47;;;16.40;99.90;;;;;;4770668;30;20047;-87
2022/07/17 04:38:48;;;;;;;0.20;0.20;;;16.40;99.90;;;;;;4771536;30;20063;-87
2022/07/17 04:41:15;;;;;;;0.32;0.32;;;16.40;99.90;;;;;;4772695;30;20063;-84
2022/07/17 04:43:42;;;;;;;0.40;0.30;;;16.40;99.90;;;;;;4784151;29;20134;-86
2022/07/17 04:46:10;;;;;;;0.43;0.20;;;16.50;99.90;;;;;;4773714;29;20055;-85
2022/07/17 04:48:37;;;;;;;0.55;0.20;;;16.50;99.90;;;;;;4771755;30;20059;-88
2022/07/17 04:51:04;;;;;;;0.30;0.17;;;16.50;99.90;;;;;;4771861;30;20542;-87
2022/07/17 04:53:35;;;;;;;0.57;0.30;;;16.50;99.90;;;;;;4771402;30;20678;-89
2022/07/17 04:56:05;;;;;;;0.88;0.30;;;16.50;99.90;;;;;;4768961;30;20055;-88
2022/07/17 04:58:33;;;;;;;0.10;0.10;;;16.50;99.90;;;;;;4759172;30;20056;-91
2022/07/17 05:01:00;;;;;;;0.10;0.10;;;16.50;99.90;;;;;;4754098;30;20064;-93
2022/07/17 05:03:28;;;;;;;0.15;0.15;;;16.50;99.90;;;;;;4762687;30;20063;-87
2022/07/17 05:05:56;;;;;;;0.30;0.30;;;16.50;99.90;;;;;;4757157;30;20055;-91
2022/07/17 05:08:23;;;;;;;0.30;0.25;;;16.60;99.90;;;;;;4763298;30;20408;-89
2022/07/17 05:10:50;;;;;;;0.55;0.30;;;16.60;99.90;;;;;;4780408;30;20059;-89
2022/07/17 05:13:20;;;;;;;0.63;0.40;;;16.60;99.90;;;;;;4781696;30;20127;-91
2022/07/17 05:15:50;;;;;;;0.45;0.32;;;16.60;99.90;;;;;;4778999;30;20584;-90
2022/07/17 05:18:17;;;;;;;0.30;0.30;;;16.60;99.90;;;;;;4767653;30;20117;-87
2022/07/17 05:20:45;;;;;;;0.32;0.30;;;16.60;99.90;;;;;;4753191;30;20115;-91
2022/07/17 05:23:12;;;;;;;0.28;0.20;;;16.60;99.90;;;;;;4757082;30;20433;-87
2022/07/17 05:25:39;;;;;;;0.25;0.20;;;16.70;99.90;;;;;;4770839;30;20061;-90
2022/07/17 05:28:07;;;;;;;0.20;0.20;;;16.70;99.90;;;;;;4770348;30;20055;-86
2022/07/17 05:30:34;;;;;;;0.30;0.30;;;16.80;99.90;;;;;;4770986;30;20128;-89
2022/07/17 05:33:03;;;;;;;0.32;0.30;;;16.80;99.90;;;;;;4770342;30;20066;-86
2022/07/17 05:35:31;;;;;;;0.30;0.28;;;16.80;99.90;;;;;;4770795;30;20067;-88
2022/07/17 05:37:58;;;;;;;0.40;0.20;;;16.90;99.90;;;;;;4771664;30;20082;-88
2022/07/17 05:40:26;;;;;;;0.10;0.10;;;16.90;99.90;;;;;;4757669;30;20520;-90
2022/07/17 05:42:53;;;;;;;0.30;0.15;;;17.00;99.90;;;;;;4769588;30;20062;-91
2022/07/17 05:45:20;;;;;;;0.50;0.30;;;17.00;99.90;;;;;;4770438;30;20623;-92
2022/07/17 05:47:48;;;;;;;0.30;0.30;;;17.10;99.90;;;;;;4789200;29;20055;-93
2022/07/17 05:50:20;;;;;;;0.30;0.30;;;17.20;99.90;;;;;;4775994;30;20139;-91
2022/07/17 05:56:39;;;;;;;0.25;0.20;;;17.30;99.90;;;;;;4763014;30;20111;-92
2022/07/17 05:59:06;;;;;;;0.32;0.30;;;17.40;99.90;;;;;;4773190;30;20130;-89
2022/07/17 06:01:33;;;;;;;0.30;0.20;;;17.50;99.90;;;;;;4758349;30;20495;-89
2022/07/17 06:04:03;;;;;;;0.22;0.20;;;17.50;99.90;;;;;;4774360;30;20128;-92
2022/07/17 06:06:32;;;;;;;0.30;0.30;;;17.60;99.90;;;;;;4772209;30;20116;-87
2022/07/17 06:09:00;;;;;;;0.00;0.00;;;17.60;99.90;;;;;;4773052;30;20059;-89
2022/07/17 06:11:27;;;;;;;0.40;0.25;;;17.70;99.90;;;;;;4772687;29;20091;-89
2022/07/17 06:14:02;;;;;;;0.82;0.40;;;17.70;99.90;;;;;;4770838;30;20060;-86
2022/07/17 06:16:30;;;;;;;0.13;0.13;;;17.70;99.90;;;;;;4772899;30;20120;-86
2022/07/17 06:18:57;;;;;;;0.38;0.30;;;17.80;99.90;;;;;;4768516;30;20083;-88
2022/07/17 06:21:24;;;;;;;0.20;0.20;;;17.80;99.90;;;;;;4799417;29;20603;-87
2022/07/17 06:23:52;;;;;;;0.20;0.20;;;17.90;99.90;;;;;;4787048;29;20062;-92
2022/07/17 06:26:50;;;;;;;0.10;0.10;;;17.90;99.90;;;;;;4757433;30;20060;-90
2022/07/17 06:33:07;;;;;;;0.82;0.30;;;18.10;99.90;;;;;;4780851;30;20133;-86
2022/07/17 06:35:34;;;;;;;0.30;0.30;;;18.20;99.90;;;;;;4767063;30;20059;-86
2022/07/17 06:38:06;;;;;;;0.40;0.30;;;18.30;99.90;;;;;;4796981;29;20063;-86
2022/07/17 06:40:33;;;;;;;0.17;0.15;;;18.30;99.90;;;;;;4769947;29;20384;-87
2022/07/17 06:43:00;;;;;;;0.20;0.20;;;18.40;99.90;;;;;;4760928;29;20086;-86
2022/07/17 06:45:28;;;;;;;0.80;0.45;;;18.50;99.90;;;;;;4802595;29;20070;-88
2022/07/17 06:47:55;;;;;;;0.75;0.43;;;18.60;99.90;;;;;;4770265;30;20482;-85
2022/07/17 06:50:27;;;;;;;0.63;0.40;;;18.60;99.90;;;;;;4769661;30;20423;-86
2022/07/17 06:52:54;;;;;;;0.57;0.57;;;18.70;99.90;;;;;;4769068;30;20075;-87
2022/07/17 06:55:21;;;;;;;0.82;0.50;;;18.80;99.90;;;;;;4768128;30;20060;-87
2022/07/17 06:57:48;;;;;;;0.80;0.40;;;18.90;99.90;;;;;;4767138;30;20147;-87
2022/07/17 07:00:22;;;;;;;0.77;0.30;;;19.00;99.90;;;;;;4769055;30;20055;-87
2022/07/17 07:03:49;;;;;;;0.40;0.40;;;19.00;99.90;;;;;;4769716;30;20086;-87
2022/07/17 07:06:19;;;;;;;0.52;0.35;;;19.10;99.90;;;;;;4794343;29;20067;-87
2022/07/17 07:08:52;;;;;;;0.85;0.50;;;19.30;99.90;;;;;;4749775;29;20066;-89
2022/07/17 07:11:19;;;;;;;0.52;0.15;;;19.40;99.90;;;;;;4775027;29;20055;-87
2022/07/17 07:13:47;;;;;;;0.20;0.20;;;19.50;99.90;;;;;;4774424;29;20393;-88
2022/07/17 07:16:16;;;;;;;0.35;0.20;;;19.60;99.90;;;;;;4757648;30;20519;-88
2022/07/17 07:18:49;;;;;;;0.22;0.20;;;19.70;99.90;;;;;;4764105;30;20067;-89
2022/07/17 07:21:16;;;;;;;0.25;0.20;;;19.90;99.90;;;;;;4765681;29;20472;-86
2022/07/17 07:23:48;;;;;;;0.20;0.20;;;20.00;99.90;;;;;;4789125;29;20113;-87
2022/07/17 07:26:47;;;;;;;0.10;0.10;;;20.10;99.20;;;;;;4786059;29;20191;-88
2022/07/17 07:29:15;;;;;;;0.30;0.25;;;20.30;98.60;;;;;;4776133;30;20143;-88
2022/07/17 07:31:54;;;;;;;0.30;0.30;;;20.50;97.60;;;;;;4765885;30;20515;-87
2022/07/17 07:34:23;;;;;;;0.35;0.22;;;20.60;97.30;;;;;;4766851;30;20071;-94
2022/07/17 07:36:51;;;;;;;0.50;0.30;;;20.70;97.30;;;;;;4752031;30;20218;-89
2022/07/17 07:39:41;;;;;;;0.63;0.30;;;20.80;95.40;;;;;;4767952;30;20086;-92
2022/07/17 07:42:21;;;;;;;0.30;0.20;;;20.90;94.10;;;;;;4801521;29;20079;-91
2022/07/17 07:48:15;;;;;;;0.20;0.15;;;21.20;93.10;;;;;;5312972;24;20174;-77
2022/07/17 07:50:42;;;;;;;0.30;0.20;;;21.30;94.30;;;;;;4798764;29;20128;-76
2022/07/17 07:53:09;;;;;;;0.28;0.28;;;21.30;92.10;;;;;;4798871;29;20051;-77
2022/07/17 07:55:36;;;;;;;0.30;0.30;;;21.40;91.90;;;;;;4789874;29;20488;-76
2022/07/17 07:58:07;;;;;;;0.43;0.30;;;21.50;91.70;;;;;;4796942;29;20059;-76
2022/07/17 08:00:34;;;;;;;0.13;0.13;;;21.60;91.40;;;;;;4788714;29;20047;-78
2022/07/17 08:03:01;;;;;;;0.20;0.20;;;21.70;91.20;;;;;;4783785;29;20058;-78
2022/07/17 08:05:28;;;;;;;0.25;0.20;;;21.80;91.50;;;;;;4777095;30;20503;-77
2022/07/17 08:07:55;;;;;;;0.22;0.20;;;22.00;91.10;;;;;;4779542;29;20139;-78
2022/07/17 08:10:22;;;;;;;0.20;0.20;;;22.10;90.90;;;;;;4747414;30;20090;-77
2022/07/17 08:12:48;;;;;;;0.30;0.30;;;22.20;90.70;;;;;;4764242;30;20202;-78
2022/07/17 08:15:17;;;;;;;0.52;0.40;;;22.30;90.50;;;;;;4793626;29;20434;-77
2022/07/17 08:17:46;;;;;;;0.30;0.30;;;22.40;91.10;;;;;;4764148;30;20063;-79
2022/07/17 08:20:13;;;;;;;0.20;0.20;;;22.50;91.40;;;;;;4780194;30;20062;-77
2022/07/17 08:22:42;;;;;;;0.30;0.20;;;22.60;92.20;;;;;;4780022;30;20401;-77
2022/07/17 08:25:29;;;;;;;1.23;0.40;;;22.60;90.70;;;;;;4779463;29;20082;-77
2022/07/17 08:27:56;;;;;;;0.50;0.40;;;22.70;91.20;;;;;;4779048;30;20113;-78
2022/07/17 08:30:23;;;;;;;0.25;0.25;;;22.70;91.10;;;;;;4778869;30;20063;-77
2022/07/17 08:32:50;;;;;;;0.40;0.30;;;22.80;90.30;;;;;;4778399;30;20058;-78
2022/07/17 08:35:17;;;;;;;0.55;0.47;;;22.80;90.10;;;;;;4780640;30;20063;-77
2022/07/17 08:37:45;;;;;;;0.20;0.20;;;22.90;90.40;;;;;;4780261;30;20063;-78
2022/07/17 08:40:22;;;;;;;0.38;0.30;;;22.90;88.00;;;;;;4780221;30;20116;-78
2022/07/17 08:42:50;;;;;;;0.38;0.32;;;23.00;87.30;;;;;;4761712;30;20051;-78
2022/07/17 08:45:17;;;;;;;0.40;0.30;;;23.10;86.20;;;;;;4776459;30;20051;-76
2022/07/17 08:47:44;;;;;;;0.52;0.50;;;23.10;86.70;;;;;;4777009;30;20127;-78
2022/07/17 08:50:11;;;;;;;0.32;0.32;;;23.20;85.60;;;;;;4776916;30;20055;-78
2022/07/17 08:52:39;;;;;;;0.60;0.40;;;23.30;85.20;;;;;;4777036;29;20059;-79
2022/07/17 08:55:10;;;;;;;0.52;0.30;;;23.40;85.80;;;;;;4775359;30;20142;-79
2022/07/17 08:57:39;;;;;;;0.80;0.35;;;23.50;85.60;;;;;;4776015;29;20062;-78
2022/07/17 09:00:16;;;;;;;0.40;0.40;;;23.60;86.90;;;;;;4776321;30;20051;-77
2022/07/17 09:02:58;;;;;;;0.28;0.20;;;23.60;85.10;;;;;;4775422;29;20059;-77
2022/07/17 09:05:29;;;;;;;;;;;23.80;84.40;;;;;;4776585;29;20061;-76
2022/07/17 09:07:57;;;;;;;0.43;0.30;;;23.80;83.30;;;;;;4777584;29;19932;-79
2022/07/17 09:10:53;;;;;;;0.45;0.38;;;23.80;83.50;;;;;;4776536;30;20059;-78
2022/07/17 09:13:22;;;;;;;0.40;0.40;;;23.90;83.80;;;;;;4771249;30;20148;-79
2022/07/17 09:15:51;;;;;;;0.30;0.30;;;24.00;83.50;;;;;;4775906;29;20055;-78
2022/07/17 09:18:18;;;;;;;0.50;0.45;;;24.00;83.20;;;;;;4776998;29;20055;-80
2022/07/17 09:20:48;;;;;;;0.60;0.43;;;24.10;84.50;;;;;;4775424;30;20139;-79
2022/07/17 09:23:16;;;;;;;0.20;0.20;;;24.20;82.30;;;;;;4775197;30;20063;-79
2022/07/17 09:25:45;;;;;;;0.30;0.30;;;24.30;83.40;;;;;;4773038;30;20063;-79
2022/07/17 09:28:13;;;;;;;0.30;0.25;;;24.30;81.70;;;;;;4747655;30;20109;-80
2022/07/17 09:30:43;;;;;;;0.30;0.30;;;24.40;83.30;;;;;;4772532;29;20051;-78
2022/07/17 09:33:20;;;;;;;1.00;0.50;;;24.50;81.70;;;;;;4785339;29;20086;-78
2022/07/17 09:35:49;;;;;;;0.38;0.35;;;24.60;81.80;;;;;;4761956;29;20059;-79
2022/07/17 09:38:46;;;;;;;0.30;0.30;;;24.60;82.40;;;;;;4789229;29;20055;-77
2022/07/17 09:41:18;;;;;;;0.40;0.40;;;24.80;84.00;;;;;;4770331;29;20055;-77
2022/07/17 09:43:59;;;;;;;0.32;0.30;;;24.80;82.30;;;;;;4774422;30;20074;-77
2022/07/17 09:46:31;;;;;;;1.10;0.68;;;24.80;82.80;;;;;;4775573;30;20059;-76
2022/07/17 09:49:01;;;;;;;0.85;0.60;;;24.90;84.40;;;;;;4781840;29;20059;-77
2022/07/17 09:51:34;;;;;;;0.45;0.40;;;25.10;83.20;;;;;;4779185;29;20050;-77
2022/07/17 09:54:03;;;;;;;0.60;0.50;;;25.20;82.60;;;;;;4782290;29;20158;-78
2022/07/17 09:56:34;;;;;;;0.68;0.50;;;25.30;82.30;;;;;;4758645;30;20070;-78
2022/07/17 09:59:09;;;;;;;0.30;0.30;;;25.30;80.90;;;;;;4749729;30;20047;-77
2022/07/17 10:01:40;;;;;;;0.30;0.30;;;25.40;81.60;;;;;;4774939;29;20659;-78
2022/07/17 10:04:10;;;;;;;0.32;0.30;;;25.50;81.80;;;;;;4784394;29;20059;-76
2022/07/17 10:06:37;;;;;;;0.73;0.47;;;25.70;82.20;;;;;;4785293;29;20138;-77
2022/07/17 10:09:05;;;;;;;1.00;0.55;;;25.70;80.60;;;;;;4778413;29;20467;-76
2022/07/17 10:11:34;;;;;;;0.43;0.43;;;25.90;81.70;;;;;;4770435;29;20051;-77
2022/07/17 10:14:11;;;;;;;0.85;0.50;;;26.00;79.70;;;;;;4776888;29;20507;-78
2022/07/17 10:16:39;;;;;;;0.52;0.35;;;26.00;81.50;;;;;;4791879;29;20166;-77
2022/07/17 10:19:22;;;;;;;0.20;0.20;;;26.20;79.60;;;;;;4789234;29;20055;-77
2022/07/17 10:21:57;;;;;;;0.52;0.52;;;26.30;77.70;;;;;;4789478;29;20127;-77
2022/07/17 10:24:25;;;;;;;0.50;0.50;;;26.40;77.70;;;;;;4775988;29;20051;-76
2022/07/17 10:26:52;;;;;;;1.02;0.60;;;26.50;77.50;;;;;;4759667;30;20052;-77
2022/07/17 10:29:38;;;;;;;0.73;0.60;;;26.60;78.00;;;;;;4771822;29;20071;-77
2022/07/17 10:32:17;;;;;;;0.45;0.40;;;26.60;75.00;;;;;;4777842;29;20089;-76
2022/07/17 10:35:05;;;;;;;0.70;0.52;;;26.70;73.40;;;;;;4779319;29;20058;-77
2022/07/17 10:37:43;;;;;;;0.50;0.40;;;26.70;74.60;;;;;;4782652;29;20613;-77
2022/07/17 10:40:23;;;;;;;0.80;0.50;;;26.80;73.40;;;;;;4775156;30;20047;-78
2022/07/17 10:43:04;;;;;;;1.20;0.40;;;26.80;72.30;;;;;;4792706;29;20063;-77
2022/07/17 10:45:35;;;;;;;0.55;0.47;;;26.90;72.40;;;;;;4779752;29;20059;-77
2022/07/17 10:48:12;;;;;;;0.70;0.50;;;27.00;74.80;;;;;;4779960;29;20070;-76
2022/07/17 10:50:40;;;;;;;0.57;0.40;;;27.00;72.60;;;;;;4781371;29;20057;-77
2022/07/17 10:53:28;;;;;;;0.63;0.40;;;27.00;72.30;;;;;;4797429;29;20092;-77
2022/07/17 10:56:05;;;;;;;0.77;0.50;;;27.10;72.30;;;;;;4797608;29;20055;-77
2022/07/17 10:58:37;;;;;;;0.38;0.30;;;27.30;71.90;;;;;;4781023;29;20863;-77
2022/07/17 11:01:04;;;;;;;0.40;0.30;;;27.30;70.00;;;;;;4797333;29;20055;-77
2022/07/17 11:03:41;;;;;;;0.38;0.30;;;27.40;72.20;;;;;;4795327;29;20134;-76
2022/07/17 11:06:18;;;;;;;0.68;0.50;;;27.50;71.80;;;;;;4792579;29;20046;-77
2022/07/17 11:08:53;;;;;;;0.40;0.40;;;27.50;73.40;;;;;;4795421;29;20517;-77
2022/07/17 11:11:22;;;;;;;0.82;0.50;;;27.50;71.60;;;;;;4781203;29;20051;-77
2022/07/17 11:14:07;;;;;;;0.40;0.40;;;27.60;70.50;;;;;;4780935;29;20554;-77
2022/07/17 11:16:34;;;;;;;0.30;0.30;;;27.70;69.90;;;;;;4796711;29;20117;-78
2022/07/17 11:19:01;;;;;;;0.28;0.28;;;27.60;69.50;;;;;;4750082;29;20457;-76
2022/07/17 11:21:27;;;;;;;0.40;0.40;;;27.60;70.30;;;;;;4780774;29;20410;-78
2022/07/17 11:23:55;;;;;;;0.50;0.47;;;27.70;71.60;;;;;;4794821;29;20061;-77
2022/07/17 11:26:23;;;;;;;0.65;0.50;;;27.90;71.60;;;;;;4796368;29;20134;-78
2022/07/17 11:28:51;;;;;;;0.47;0.40;;;28.10;71.00;;;;;;4771958;29;20114;-77
2022/07/17 11:31:27;;;;;;;0.70;0.40;;;28.40;70.40;;;;;;4782377;29;20070;-78
2022/07/17 11:33:59;;;;;;;0.45;0.45;;;28.50;68.90;;;;;;4764065;29;20059;-78
2022/07/17 11:36:27;;;;;;;0.70;0.50;;;28.60;69.30;;;;;;4797134;29;20055;-78
2022/07/17 11:38:55;;;;;;;0.55;0.40;;;28.80;69.10;;;;;;4796766;29;20146;-77
2022/07/17 11:41:30;;;;;;;0.57;0.57;;;29.10;67.70;;;;;;4798036;29;20058;-75
2022/07/17 11:43:57;;;;;;;0.45;0.40;;;29.20;66.70;;;;;;4765926;29;20108;-76
2022/07/17 11:46:23;;;;;;;0.50;0.40;;;29.40;66.20;;;;;;4796496;29;20111;-76
2022/07/17 11:48:50;;;;;;;0.40;0.40;;;29.80;68.00;;;;;;4779638;29;20082;-76
2022/07/17 11:51:18;;;;;;;0.47;0.47;;;30.20;65.40;;;;;;4796761;29;20400;-78
2022/07/17 11:53:45;;;;;;;0.70;0.50;;;30.40;64.20;;;;;;4765460;29;20090;-76
2022/07/17 11:56:19;;;;;;;0.40;0.40;;;30.50;63.90;;;;;;4779448;29;20154;-76
2022/07/17 11:58:47;;;;;;;0.52;0.50;;;30.60;63.90;;;;;;4795512;29;20051;-77
2022/07/17 12:01:14;;;;;;;0.40;0.40;;;30.60;63.10;;;;;;4796530;29;20098;-75
2022/07/17 12:03:41;;;;;;;0.40;0.40;;;30.70;63.20;;;;;;4779931;29;20607;-76
2022/07/17 12:06:08;;;;;;;0.60;0.60;;;30.70;63.00;;;;;;4780638;29;20115;-76
2022/07/17 12:08:36;;;;;;;0.50;0.50;;;30.90;63.70;;;;;;4780274;29;20435;-77
2022/07/17 12:11:08;;;;;;;0.57;0.55;;;31.20;62.10;;;;;;4784169;29;20051;-77
2022/07/17 12:13:43;;;;;;;0.77;0.77;;;31.50;63.70;;;;;;4775644;29;20146;-78
2022/07/17 12:16:29;;;;;;;0.70;0.60;;;31.80;61.70;;;;;;4772663;29;20142;-77
2022/07/17 12:19:05;;;;;;;0.68;0.60;;;32.20;60.50;;;;;;4807263;29;20517;-78
2022/07/17 12:21:32;;;;;;;0.60;0.60;;;32.40;59.80;;;;;;4794844;29;20066;-78
2022/07/17 12:24:02;;;;;;;0.57;0.50;;;32.60;60.90;;;;;;4808210;29;20064;-78
2022/07/17 12:26:29;;;;;;;0.50;0.50;;;33.00;59.50;;;;;;4786858;29;20131;-78
2022/07/17 12:28:57;;;;;;;1.20;0.50;;;33.20;60.10;;;;;;4794609;29;20472;-78
2022/07/17 12:31:27;;;;;;;0.68;0.55;;;33.70;60.60;;;;;;4782947;29;20051;-78
2022/07/17 12:33:54;;;;;;;0.45;0.45;;;34.10;59.90;;;;;;4794093;29;20704;-78
2022/07/17 12:36:22;;;;;;;0.50;0.50;;;34.50;57.60;;;;;;4796323;29;20051;-79
2022/07/17 12:38:49;;;;;;;0.73;0.63;;;34.90;55.90;;;;;;4792784;29;20214;-77
2022/07/17 12:41:16;;;;;;;0.70;0.60;;;34.90;56.90;;;;;;4767065;30;20055;-77
2022/07/17 12:43:45;;;;;;;0.60;0.50;;;34.80;55.30;;;;;;4791514;29;20081;-78
2022/07/17 12:46:12;;;;;;;0.60;0.57;;;34.60;55.40;;;;;;4794268;29;20120;-78
2022/07/17 12:48:44;;;;;;;0.60;0.60;;;34.70;58.00;;;;;;4794541;29;20729;-77
2022/07/17 12:51:12;;;;;;;0.60;0.60;;;35.10;57.80;;;;;;4795882;29;20499;-77
2022/07/17 12:53:40;;;;;;;0.60;0.55;;;35.50;55.70;;;;;;4794434;29;20495;-77
2022/07/17 12:56:08;;;;;;;0.40;0.40;;;35.50;55.50;;;;;;4766309;29;20522;-77
2022/07/17 12:58:36;;;;;;;0.25;0.25;;;35.80;56.30;;;;;;4792275;29;20054;-77
2022/07/17 13:01:07;;;;;;;0.63;0.40;;;36.10;54.00;;;;;;4792930;29;20094;-77
2022/07/17 13:03:34;;;;;;;0.40;0.40;;;36.00;53.70;;;;;;4780905;29;20058;-78
2022/07/17 13:06:01;;;;;;;0.60;0.60;;;36.30;55.40;;;;;;4792073;29;20706;-77
2022/07/17 13:08:29;;;;;;;0.70;0.60;;;36.20;53.00;;;;;;4792742;29;20058;-77
2022/07/17 13:10:56;;;;;;;0.60;0.60;;;36.50;52.70;;;;;;4779423;29;20406;-76
2022/07/17 13:13:23;;;;;;;0.68;0.40;;;36.80;53.40;;;;;;4764793;30;20414;-77